Terminal Aerodrome Forecast
Issued by NWS

Home | Current Version | Previous Version | Text Only | Print | Product List | Glossary On
Versions: 1 2 3 4 5 6 7 8 9 10 11 12 13 14 15 16
000
FTUS42 KMLB 311405 AAA
TAFISM
TAF AMD
KISM 311405Z 3114/0112 22011KT P6SM VCSH SCT025 OVC100
      TEMPO 3114/3117 5SM SHRA BKN015 BKN050
     FM311700 21013G21KT P6SM VCSH SCT030 OVC060
     FM010000 18008KT P6SM VCSH FEW010 SCT040 BKN100=

USA.gov is the U.S. government's official web portal to all federal, state and local government web resources and services.